sensor_id;sensor_type;location;lat;lon;timestamp;pressure;altitude;pressure_sealevel;temperature;humidity
44751;BME280;30477;48.224;11.470;2022-10-16T00:01:11;96091.78;;;13.76;77.29
44751;BME280;30477;48.224;11.470;2022-10-16T00:03:37;96097.81;;;13.76;77.22
44751;BME280;30477;48.224;11.470;2022-10-16T00:06:03;96092.28;;;13.71;77.40
44751;BME280;30477;48.224;11.470;2022-10-16T00:08:29;96093.22;;;13.70;77.30
44751;BME280;30477;48.224;11.470;2022-10-16T00:11:01;96091.63;;;13.69;77.05
44751;BME280;30477;48.224;11.470;2022-10-16T00:13:28;96093.22;;;13.70;77.13
44751;BME280;30477;48.224;11.470;2022-10-16T00:15:54;96088.84;;;13.71;77.03
44751;BME280;30477;48.224;11.470;2022-10-16T00:18:20;96082.34;;;13.75;77.64
44751;BME280;30477;48.224;11.470;2022-10-16T00:20:45;96081.56;;;13.83;77.20
44751;BME280;30477;48.224;11.470;2022-10-16T00:23:10;96090.66;;;13.78;77.39
44751;BME280;30477;48.224;11.470;2022-10-16T00:25:35;96088.38;;;13.75;77.30
44751;BME280;30477;48.224;11.470;2022-10-16T00:28:01;96088.53;;;13.74;77.56
44751;BME280;30477;48.224;11.470;2022-10-16T00:30:26;96079.75;;;13.75;77.26
44751;BME280;30477;48.224;11.470;2022-10-16T00:32:52;96078.44;;;13.71;77.30
44751;BME280;30477;48.224;11.470;2022-10-16T00:35:18;96081.66;;;13.65;77.39
44751;BME280;30477;48.224;11.470;2022-10-16T00:37:43;96088.66;;;13.64;77.60
44751;BME280;30477;48.224;11.470;2022-10-16T00:40:08;96083.78;;;13.61;77.61
44751;BME280;30477;48.224;11.470;2022-10-16T00:42:34;96091.41;;;13.63;77.86
44751;BME280;30477;48.224;11.470;2022-10-16T00:44:59;96101.00;;;13.62;77.67
44751;BME280;30477;48.224;11.470;2022-10-16T00:47:26;96107.34;;;13.59;77.90
44751;BME280;30477;48.224;11.470;2022-10-16T00:49:53;96107.50;;;13.58;77.93
44751;BME280;30477;48.224;11.470;2022-10-16T00:52:20;96108.47;;;13.57;77.95
44751;BME280;30477;48.224;11.470;2022-10-16T00:54:46;96117.41;;;13.54;78.07
44751;BME280;30477;48.224;11.470;2022-10-16T00:57:11;96107.31;;;13.51;78.18
44751;BME280;30477;48.224;11.470;2022-10-16T00:59:38;96107.47;;;13.50;78.28
44751;BME280;30477;48.224;11.470;2022-10-16T01:02:05;96114.94;;;13.45;78.23
44751;BME280;30477;48.224;11.470;2022-10-16T01:04:32;96116.53;;;13.46;78.50
44751;BME280;30477;48.224;11.470;2022-10-16T01:12:38;96125.63;;;13.33;78.88
44751;BME280;30477;48.224;11.470;2022-10-16T01:15:17;96119.75;;;13.31;78.71
44751;BME280;30477;48.224;11.470;2022-10-16T01:17:48;96126.91;;;13.29;79.11
44751;BME280;30477;48.224;11.470;2022-10-16T01:20:20;96118.13;;;13.30;78.77
44751;BME280;30477;48.224;11.470;2022-10-16T01:23:04;96123.47;;;13.29;78.80
44751;BME280;30477;48.224;11.470;2022-10-16T01:27:56;96117.66;;;13.35;78.89
44751;BME280;30477;48.224;11.470;2022-10-16T01:30:26;96117.50;;;13.36;78.82
44751;BME280;30477;48.224;11.470;2022-10-16T01:32:54;96110.34;;;13.38;78.88
44751;BME280;30477;48.224;11.470;2022-10-16T01:35:29;96115.22;;;13.33;78.78
44751;BME280;30477;48.224;11.470;2022-10-16T01:40:22;96115.53;;;13.30;78.83
44751;BME280;30477;48.224;11.470;2022-10-16T01:42:53;96111.72;;;13.25;78.94
44751;BME280;30477;48.224;11.470;2022-10-16T01:45:21;96112.38;;;13.27;78.87
44751;BME280;30477;48.224;11.470;2022-10-16T01:47:46;96108.31;;;13.24;79.31
44751;BME280;30477;48.224;11.470;2022-10-16T01:50:12;96108.97;;;13.26;79.03
44751;BME280;30477;48.224;11.470;2022-10-16T01:52:40;96114.03;;;13.28;79.01
44751;BME280;30477;48.224;11.470;2022-10-16T01:55:07;96104.75;;;13.25;79.10
44751;BME280;30477;48.224;11.470;2022-10-16T01:57:34;96108.44;;;13.23;79.17
44751;BME280;30477;48.224;11.470;2022-10-16T02:00:01;96092.72;;;13.24;79.26
44751;BME280;30477;48.224;11.470;2022-10-16T02:02:28;96098.44;;;13.28;79.40
44751;BME280;30477;48.224;11.470;2022-10-16T02:05:02;96099.78;;;13.32;79.36
44751;BME280;30477;48.224;11.470;2022-10-16T02:07:29;96105.78;;;13.32;79.29
44751;BME280;30477;48.224;11.470;2022-10-16T02:09:54;96098.91;;;13.23;79.32
44751;BME280;30477;48.224;11.470;2022-10-16T02:12:26;96100.16;;;13.19;79.32
44751;BME280;30477;48.224;11.470;2022-10-16T02:14:53;96100.84;;;13.21;79.23
44751;BME280;30477;48.224;11.470;2022-10-16T02:17:18;96097.25;;;13.22;79.41
44751;BME280;30477;48.224;11.470;2022-10-16T02:19:44;96100.84;;;13.21;79.45
44751;BME280;30477;48.224;11.470;2022-10-16T02:22:15;96097.72;;;13.17;79.25
44751;BME280;30477;48.224;11.470;2022-10-16T02:29:46;96103.53;;;13.11;79.70
44751;BME280;30477;48.224;11.470;2022-10-16T02:32:15;96113.13;;;13.11;79.44
44751;BME280;30477;48.224;11.470;2022-10-16T02:34:42;96115.34;;;13.06;79.52
44751;BME280;30477;48.224;11.470;2022-10-16T02:37:08;96119.28;;;13.10;79.93
44751;BME280;30477;48.224;11.470;2022-10-16T02:39:35;96123.50;;;13.11;79.76
44751;BME280;30477;48.224;11.470;2022-10-16T02:42:01;96114.88;;;13.02;79.75
44751;BME280;30477;48.224;11.470;2022-10-16T02:44:26;96120.50;;;12.97;79.71
44751;BME280;30477;48.224;11.470;2022-10-16T02:46:51;96113.03;;;12.94;79.81
44751;BME280;30477;48.224;11.470;2022-10-16T02:49:16;96121.09;;;12.91;80.12
44751;BME280;30477;48.224;11.470;2022-10-16T02:51:42;96124.84;;;12.89;80.09
44751;BME280;30477;48.224;11.470;2022-10-16T02:54:08;96127.59;;;12.87;79.90
44751;BME280;30477;48.224;11.470;2022-10-16T02:56:33;96118.97;;;12.87;80.03
44751;BME280;30477;48.224;11.470;2022-10-16T02:58:58;96114.44;;;12.89;80.31
44751;BME280;30477;48.224;11.470;2022-10-16T03:01:23;96120.97;;;12.93;80.14
44751;BME280;30477;48.224;11.470;2022-10-16T03:03:49;96110.78;;;12.99;80.27
44751;BME280;30477;48.224;11.470;2022-10-16T03:06:14;96109.66;;;13.02;79.95
44751;BME280;30477;48.224;11.470;2022-10-16T03:08:39;96109.50;;;13.04;79.84
44751;BME280;30477;48.224;11.470;2022-10-16T03:11:05;96107.88;;;13.03;80.10
44751;BME280;30477;48.224;11.470;2022-10-16T03:13:30;96107.06;;;13.02;79.59
44751;BME280;30477;48.224;11.470;2022-10-16T03:15:55;96114.34;;;12.98;79.48
44751;BME280;30477;48.224;11.470;2022-10-16T03:18:20;96113.38;;;12.99;79.55
44751;BME280;30477;48.224;11.470;2022-10-16T03:20:46;96128.28;;;12.97;79.65
44751;BME280;30477;48.224;11.470;2022-10-16T03:23:11;96121.69;;;13.03;79.81
44751;BME280;30477;48.224;11.470;2022-10-16T03:25:37;96128.72;;;13.11;79.32
44751;BME280;30477;48.224;11.470;2022-10-16T03:28:02;96123.50;;;13.11;79.51
44751;BME280;30477;48.224;11.470;2022-10-16T03:30:28;96114.44;;;13.15;79.16
44751;BME280;30477;48.224;11.470;2022-10-16T03:32:53;96114.91;;;13.10;78.71
44751;BME280;30477;48.224;11.470;2022-10-16T03:35:22;96119.53;;;12.98;78.40
44751;BME280;30477;48.224;11.470;2022-10-16T03:37:47;96124.69;;;12.90;78.92
44751;BME280;30477;48.224;11.470;2022-10-16T03:40:12;96129.22;;;12.88;79.07
44751;BME280;30477;48.224;11.470;2022-10-16T03:42:37;96131.97;;;12.87;79.10
44751;BME280;30477;48.224;11.470;2022-10-16T03:45:03;96137.34;;;12.93;79.17
44751;BME280;30477;48.224;11.470;2022-10-16T03:47:28;96141.59;;;12.94;79.02
44751;BME280;30477;48.224;11.470;2022-10-16T03:49:54;96138.34;;;12.92;79.23
44751;BME280;30477;48.224;11.470;2022-10-16T03:52:19;96146.44;;;12.89;79.33
44751;BME280;30477;48.224;11.470;2022-10-16T03:54:44;96137.69;;;12.90;79.66
44751;BME280;30477;48.224;11.470;2022-10-16T03:57:09;96141.00;;;13.00;79.67
44751;BME280;30477;48.224;11.470;2022-10-16T03:59:34;96143.94;;;13.06;79.74
44751;BME280;30477;48.224;11.470;2022-10-16T04:02:00;96142.59;;;13.02;79.05
44751;BME280;30477;48.224;11.470;2022-10-16T04:04:25;96145.31;;;12.92;79.17
44751;BME280;30477;48.224;11.470;2022-10-16T04:06:50;96139.28;;;12.91;79.26
44751;BME280;30477;48.224;11.470;2022-10-16T04:09:16;96141.47;;;12.96;79.73
44751;BME280;30477;48.224;11.470;2022-10-16T04:11:41;96146.34;;;12.99;79.39
44751;BME280;30477;48.224;11.470;2022-10-16T04:14:06;96132.38;;;13.00;79.63
44751;BME280;30477;48.224;11.470;2022-10-16T04:16:31;96137.72;;;12.98;79.29
44751;BME280;30477;48.224;11.470;2022-10-16T04:18:57;96128.91;;;12.91;79.27
44751;BME280;30477;48.224;11.470;2022-10-16T04:21:22;96132.47;;;12.90;79.45
44751;BME280;30477;48.224;11.470;2022-10-16T04:23:47;96123.72;;;12.91;79.90
44751;BME280;30477;48.224;11.470;2022-10-16T04:26:12;96128.00;;;13.00;79.87
44751;BME280;30477;48.224;11.470;2022-10-16T04:28:38;96126.06;;;13.03;79.70
44751;BME280;30477;48.224;11.470;2022-10-16T04:31:03;96133.91;;;13.11;79.96
44751;BME280;30477;48.224;11.470;2022-10-16T04:33:29;96136.97;;;13.06;79.49
44751;BME280;30477;48.224;11.470;2022-10-16T04:35:57;96141.41;;;12.88;79.07
44751;BME280;30477;48.224;11.470;2022-10-16T04:38:23;96143.78;;;12.81;79.80
44751;BME280;30477;48.224;11.470;2022-10-16T04:40:48;96150.47;;;12.84;79.98
44751;BME280;30477;48.224;11.470;2022-10-16T04:43:13;96144.16;;;12.86;79.91
44751;BME280;30477;48.224;11.470;2022-10-16T04:45:38;96141.41;;;12.88;80.20
44751;BME280;30477;48.224;11.470;2022-10-16T04:48:04;96147.47;;;12.96;80.19
44751;BME280;30477;48.224;11.470;2022-10-16T04:50:29;96147.75;;;12.93;80.20
44751;BME280;30477;48.224;11.470;2022-10-16T04:52:54;96145.53;;;12.98;80.08
44751;BME280;30477;48.224;11.470;2022-10-16T04:55:19;96142.28;;;12.96;80.03
44751;BME280;30477;48.224;11.470;2022-10-16T04:57:44;96142.16;;;12.80;79.88
44751;BME280;30477;48.224;11.470;2022-10-16T05:00:10;96131.75;;;12.80;80.23
44751;BME280;30477;48.224;11.470;2022-10-16T05:02:35;96124.34;;;12.85;80.22
44751;BME280;30477;48.224;11.470;2022-10-16T05:05:00;96125.63;;;12.81;80.12
44751;BME280;30477;48.224;11.470;2022-10-16T05:07:25;96141.19;;;12.81;80.25
44751;BME280;30477;48.224;11.470;2022-10-16T05:09:51;96136.16;;;12.79;80.25
44751;BME280;30477;48.224;11.470;2022-10-16T05:12:16;96141.03;;;12.83;80.42
44751;BME280;30477;48.224;11.470;2022-10-16T05:14:42;96144.47;;;12.83;80.13
44751;BME280;30477;48.224;11.470;2022-10-16T05:17:07;96146.75;;;12.86;80.21
44751;BME280;30477;48.224;11.470;2022-10-16T05:19:32;96141.88;;;12.83;80.09
44751;BME280;30477;48.224;11.470;2022-10-16T05:21:57;96138.00;;;12.87;80.86
44751;BME280;30477;48.224;11.470;2022-10-16T05:24:23;96147.16;;;12.99;80.51
44751;BME280;30477;48.224;11.470;2022-10-16T05:26:48;96150.34;;;12.93;80.14
44751;BME280;30477;48.224;11.470;2022-10-16T05:29:14;96153.53;;;12.79;80.39
44751;BME280;30477;48.224;11.470;2022-10-16T05:31:39;96153.81;;;12.76;80.31
44751;BME280;30477;48.224;11.470;2022-10-16T05:34:05;96155.50;;;12.85;80.43
44751;BME280;30477;48.224;11.470;2022-10-16T05:36:30;96155.19;;;12.88;80.33
44751;BME280;30477;48.224;11.470;2022-10-16T05:38:55;96166.72;;;12.86;80.32
44751;BME280;30477;48.224;11.470;2022-10-16T05:41:20;96162.66;;;12.83;80.38
44751;BME280;30477;48.224;11.470;2022-10-16T05:43:49;96162.25;;;12.96;80.53
44751;BME280;30477;48.224;11.470;2022-10-16T05:46:14;96168.84;;;12.90;80.32
44751;BME280;30477;48.224;11.470;2022-10-16T05:48:40;96164.47;;;12.91;80.45
44751;BME280;30477;48.224;11.470;2022-10-16T05:51:06;96167.94;;;12.99;80.42
44751;BME280;30477;48.224;11.470;2022-10-16T05:53:32;96171.19;;;13.02;80.18
44751;BME280;30477;48.224;11.470;2022-10-16T05:55:58;96166.84;;;13.02;80.31
44751;BME280;30477;48.224;11.470;2022-10-16T05:58:24;96164.38;;;13.00;80.23
44751;BME280;30477;48.224;11.470;2022-10-16T06:00:53;96173.44;;;12.96;80.14
44751;BME280;30477;48.224;11.470;2022-10-16T06:03:18;96172.13;;;12.92;80.27
44751;BME280;30477;48.224;11.470;2022-10-16T06:05:44;96179.25;;;12.90;80.17
44751;BME280;30477;48.224;11.470;2022-10-16T06:08:09;96177.91;;;12.86;80.42
44751;BME280;30477;48.224;11.470;2022-10-16T06:10:34;96184.75;;;12.87;80.55
44751;BME280;30477;48.224;11.470;2022-10-16T06:12:59;96189.63;;;12.90;80.30
44751;BME280;30477;48.224;11.470;2022-10-16T06:15:25;96179.56;;;12.87;80.27
44751;BME280;30477;48.224;11.470;2022-10-16T06:17:50;96195.44;;;12.84;80.37
44751;BME280;30477;48.224;11.470;2022-10-16T06:20:15;96199.00;;;12.83;80.48
44751;BME280;30477;48.224;11.470;2022-10-16T06:22:40;96197.38;;;12.82;80.46
44751;BME280;30477;48.224;11.470;2022-10-16T06:25:06;96199.00;;;12.83;80.57
44751;BME280;30477;48.224;11.470;2022-10-16T06:27:31;96206.13;;;12.81;80.57
44751;BME280;30477;48.224;11.470;2022-10-16T06:29:56;96206.41;;;12.78;80.34
44751;BME280;30477;48.224;11.470;2022-10-16T06:32:22;96207.47;;;12.85;80.64
44751;BME280;30477;48.224;11.470;2022-10-16T06:34:47;96202.31;;;12.93;80.94
44751;BME280;30477;48.224;11.470;2022-10-16T06:37:12;96212.03;;;12.91;80.30
44751;BME280;30477;48.224;11.470;2022-10-16T06:39:38;96213.47;;;12.86;80.58
44751;BME280;30477;48.224;11.470;2022-10-16T06:42:03;96212.94;;;12.82;80.36
44751;BME280;30477;48.224;11.470;2022-10-16T06:44:29;96220.28;;;12.87;80.78
44751;BME280;30477;48.224;11.470;2022-10-16T06:46:54;96220.50;;;12.93;80.73
44751;BME280;30477;48.224;11.470;2022-10-16T06:49:19;96221.63;;;12.91;80.48
44751;BME280;30477;48.224;11.470;2022-10-16T06:51:47;96224.97;;;12.83;80.28
44751;BME280;30477;48.224;11.470;2022-10-16T06:54:12;96233.44;;;12.85;80.68
44751;BME280;30477;48.224;11.470;2022-10-16T06:56:38;96233.78;;;12.90;80.75
44751;BME280;30477;48.224;11.470;2022-10-16T06:59:03;96238.00;;;12.91;80.79
44751;BME280;30477;48.224;11.470;2022-10-16T07:01:29;96235.78;;;12.96;80.69
44751;BME280;30477;48.224;11.470;2022-10-16T07:03:54;96238.75;;;13.02;80.87
44751;BME280;30477;48.224;11.470;2022-10-16T07:06:20;96237.75;;;13.20;81.06
44751;BME280;30477;48.224;11.470;2022-10-16T07:08:46;96245.03;;;13.35;80.80
44751;BME280;30477;48.224;11.470;2022-10-16T07:11:12;96241.97;;;13.39;80.73
44751;BME280;30477;48.224;11.470;2022-10-16T07:13:39;96243.81;;;13.47;80.31
44751;BME280;30477;48.224;11.470;2022-10-16T07:16:11;96239.78;;;13.53;80.18
44751;BME280;30477;48.224;11.470;2022-10-16T07:18:37;96243.72;;;13.57;80.03
44751;BME280;30477;48.224;11.470;2022-10-16T07:21:05;96247.59;;;13.53;79.65
44751;BME280;30477;48.224;11.470;2022-10-16T07:23:31;96251.16;;;13.52;79.62
44751;BME280;30477;48.224;11.470;2022-10-16T07:25:56;96255.34;;;13.45;79.88
44751;BME280;30477;48.224;11.470;2022-10-16T07:28:21;96266.75;;;13.52;80.11
44751;BME280;30477;48.224;11.470;2022-10-16T07:30:47;96267.47;;;13.62;79.78
44751;BME280;30477;48.224;11.470;2022-10-16T07:33:12;96264.91;;;13.70;79.68
44751;BME280;30477;48.224;11.470;2022-10-16T07:35:37;96276.34;;;13.77;79.94
44751;BME280;30477;48.224;11.470;2022-10-16T07:38:02;96273.75;;;13.86;79.30
44751;BME280;30477;48.224;11.470;2022-10-16T07:40:27;96277.34;;;13.85;79.50
44751;BME280;30477;48.224;11.470;2022-10-16T07:42:53;96282.59;;;13.93;79.22
44751;BME280;30477;48.224;11.470;2022-10-16T07:45:18;96274.97;;;13.99;79.10
44751;BME280;30477;48.224;11.470;2022-10-16T07:47:43;96279.03;;;14.02;78.85
44751;BME280;30477;48.224;11.470;2022-10-16T07:50:08;96286.38;;;14.07;78.83
44751;BME280;30477;48.224;11.470;2022-10-16T07:52:34;96285.09;;;14.11;78.65
44751;BME280;30477;48.224;11.470;2022-10-16T07:54:59;96285.59;;;14.14;78.47
44751;BME280;30477;48.224;11.470;2022-10-16T07:57:24;96281.06;;;14.16;78.44
44751;BME280;30477;48.224;11.470;2022-10-16T07:59:49;96289.22;;;14.21;78.33
44751;BME280;30477;48.224;11.470;2022-10-16T08:02:14;96289.22;;;14.30;77.96
44751;BME280;30477;48.224;11.470;2022-10-16T08:04:39;96288.13;;;14.32;77.94
44751;BME280;30477;48.224;11.470;2022-10-16T08:07:06;96289.94;;;14.48;77.80
44751;BME280;30477;48.224;11.470;2022-10-16T08:09:31;96299.75;;;14.54;77.56
44751;BME280;30477;48.224;11.470;2022-10-16T08:11:56;96297.66;;;14.58;77.55
44751;BME280;30477;48.224;11.470;2022-10-16T08:14:22;96298.00;;;14.63;77.30
44751;BME280;30477;48.224;11.470;2022-10-16T08:16:47;96299.81;;;14.71;77.01
44751;BME280;30477;48.224;11.470;2022-10-16T08:19:12;96297.72;;;14.74;77.01
44751;BME280;30477;48.224;11.470;2022-10-16T08:21:37;96303.41;;;14.78;76.39
44751;BME280;30477;48.224;11.470;2022-10-16T08:24:02;96302.59;;;14.86;76.50
44751;BME280;30477;48.224;11.470;2022-10-16T08:26:28;96296.41;;;14.95;76.05
44751;BME280;30477;48.224;11.470;2022-10-16T08:28:53;96302.47;;;15.04;76.00
44751;BME280;30477;48.224;11.470;2022-10-16T08:31:19;96315.69;;;15.10;75.45
44751;BME280;30477;48.224;11.470;2022-10-16T08:33:44;96313.53;;;15.14;75.16
44751;BME280;30477;48.224;11.470;2022-10-16T08:36:11;96322.66;;;15.18;74.93
44751;BME280;30477;48.224;11.470;2022-10-16T08:38:37;96316.81;;;15.24;74.81
44751;BME280;30477;48.224;11.470;2022-10-16T08:41:17;96325.28;;;15.34;74.81
44751;BME280;30477;48.224;11.470;2022-10-16T08:48:56;96320.22;;;15.66;74.19
44751;BME280;30477;48.224;11.470;2022-10-16T08:51:24;96321.50;;;15.70;73.69
44751;BME280;30477;48.224;11.470;2022-10-16T08:56:20;96329.50;;;15.85;72.96
44751;BME280;30477;48.224;11.470;2022-10-16T08:58:45;96334.84;;;15.99;72.33
44751;BME280;30477;48.224;11.470;2022-10-16T09:01:13;96330.41;;;16.16;71.69
44751;BME280;30477;48.224;11.470;2022-10-16T09:13:48;96321.47;;;16.81;68.97
44751;BME280;30477;48.224;11.470;2022-10-16T09:18:41;96331.50;;;17.01;68.17
44751;BME280;30477;48.224;11.470;2022-10-16T09:21:15;96331.84;;;17.21;67.63
44751;BME280;30477;48.224;11.470;2022-10-16T09:23:41;96330.44;;;17.33;67.36
44751;BME280;30477;48.224;11.470;2022-10-16T09:26:09;96329.25;;;17.59;65.91
44751;BME280;30477;48.224;11.470;2022-10-16T09:28:36;96329.56;;;17.64;65.64
44751;BME280;30477;48.224;11.470;2022-10-16T09:31:01;96339.16;;;17.87;65.32
44751;BME280;30477;48.224;11.470;2022-10-16T09:33:33;96335.13;;;17.99;64.41
44751;BME280;30477;48.224;11.470;2022-10-16T09:35:59;96334.94;;;18.15;63.66
44751;BME280;30477;48.224;11.470;2022-10-16T09:38:28;96341.53;;;18.26;63.53
44751;BME280;30477;48.224;11.470;2022-10-16T09:40:55;96333.75;;;18.33;63.24
44751;BME280;30477;48.224;11.470;2022-10-16T09:43:22;96339.44;;;18.51;63.19
44751;BME280;30477;48.224;11.470;2022-10-16T09:45:59;96344.56;;;18.74;62.65
44751;BME280;30477;48.224;11.470;2022-10-16T09:48:27;96349.69;;;18.97;61.80
44751;BME280;30477;48.224;11.470;2022-10-16T09:51:00;96354.84;;;19.27;61.15
44751;BME280;30477;48.224;11.470;2022-10-16T09:53:26;96347.38;;;19.52;59.67
44751;BME280;30477;48.224;11.470;2022-10-16T09:56:02;96340.56;;;19.58;57.92
44751;BME280;30477;48.224;11.470;2022-10-16T09:58:30;96348.31;;;19.66;57.40
44751;BME280;30477;48.224;11.470;2022-10-16T10:00:55;96351.06;;;19.79;56.48
44751;BME280;30477;48.224;11.470;2022-10-16T10:03:37;96344.56;;;19.75;56.41
44751;BME280;30477;48.224;11.470;2022-10-16T10:06:14;96336.63;;;19.97;55.83
44751;BME280;30477;48.224;11.470;2022-10-16T10:08:51;96339.31;;;20.03;55.25
44751;BME280;30477;48.224;11.470;2022-10-16T10:11:17;96346.00;;;20.06;54.86
44751;BME280;30477;48.224;11.470;2022-10-16T10:13:42;96349.31;;;20.21;54.48
44751;BME280;30477;48.224;11.470;2022-10-16T10:16:07;96349.59;;;20.33;54.04
44751;BME280;30477;48.224;11.470;2022-10-16T10:18:33;96356.91;;;20.38;53.84
44751;BME280;30477;48.224;11.470;2022-10-16T10:20:59;96362.53;;;20.35;54.24
44751;BME280;30477;48.224;11.470;2022-10-16T10:23:25;96358.97;;;20.49;54.09
44751;BME280;30477;48.224;11.470;2022-10-16T10:31:06;96344.91;;;20.63;54.40
44751;BME280;30477;48.224;11.470;2022-10-16T10:46:25;96340.22;;;21.27;53.94
44751;BME280;30477;48.224;11.470;2022-10-16T10:49:03;96340.25;;;21.40;54.04
44751;BME280;30477;48.224;11.470;2022-10-16T10:59:11;96340.09;;;21.48;52.67
44751;BME280;30477;48.224;11.470;2022-10-16T11:01:48;96340.69;;;21.51;52.10
44751;BME280;30477;48.224;11.470;2022-10-16T11:06:43;96340.28;;;21.60;51.48
44751;BME280;30477;48.224;11.470;2022-10-16T11:09:18;96341.72;;;21.63;52.06
44751;BME280;30477;48.224;11.470;2022-10-16T11:11:54;96338.47;;;21.74;51.55
44751;BME280;30477;48.224;11.470;2022-10-16T11:14:38;96341.09;;;21.81;51.63
44751;BME280;30477;48.224;11.470;2022-10-16T11:17:20;96333.78;;;21.89;51.67
44751;BME280;30477;48.224;11.470;2022-10-16T11:20:32;96336.63;;;21.81;51.33
44751;BME280;30477;48.224;11.470;2022-10-16T11:22:39;96337.22;;;21.97;50.55
44751;BME280;30477;48.224;11.470;2022-10-16T11:27:40;96339.06;;;22.03;49.26
44751;BME280;30477;48.224;11.470;2022-10-16T11:30:12;96346.72;;;22.18;48.64
44751;BME280;30477;48.224;11.470;2022-10-16T11:32:44;96340.63;;;22.10;48.04
44751;BME280;30477;48.224;11.470;2022-10-16T11:35:20;96331.28;;;22.21;47.91
44751;BME280;30477;48.224;11.470;2022-10-16T11:37:48;96333.34;;;22.26;47.69
44751;BME280;30477;48.224;11.470;2022-10-16T11:40:23;96332.53;;;22.25;47.11
44751;BME280;30477;48.224;11.470;2022-10-16T11:43:37;96339.19;;;22.21;46.80
44751;BME280;30477;48.224;11.470;2022-10-16T11:45:39;96339.41;;;22.20;46.79
44751;BME280;30477;48.224;11.470;2022-10-16T11:51:05;96336.19;;;22.24;46.29
44751;BME280;30477;48.224;11.470;2022-10-16T11:53:45;96333.94;;;22.35;46.55
44751;BME280;30477;48.224;11.470;2022-10-16T11:56:12;96331.09;;;22.29;46.82
44751;BME280;30477;48.224;11.470;2022-10-16T12:06:37;96337.78;;;22.39;45.74
44751;BME280;30477;48.224;11.470;2022-10-16T12:09:05;96329.69;;;22.27;45.77
44751;BME280;30477;48.224;11.470;2022-10-16T12:11:37;96336.97;;;22.32;45.88
44751;BME280;30477;48.224;11.470;2022-10-16T12:16:59;96329.22;;;22.50;45.72
44751;BME280;30477;48.224;11.470;2022-10-16T12:19:24;96330.00;;;22.50;45.64
44751;BME280;30477;48.224;11.470;2022-10-16T12:21:51;96324.97;;;22.49;45.18
44751;BME280;30477;48.224;11.470;2022-10-16T12:24:21;96329.63;;;22.47;44.86
44751;BME280;30477;48.224;11.470;2022-10-16T12:26:46;96333.28;;;22.46;45.14
44751;BME280;30477;48.224;11.470;2022-10-16T12:31:56;96326.00;;;22.41;44.12
44751;BME280;30477;48.224;11.470;2022-10-16T12:34:23;96329.25;;;22.37;43.56
44751;BME280;30477;48.224;11.470;2022-10-16T12:36:51;96321.97;;;22.39;43.05
44751;BME280;30477;48.224;11.470;2022-10-16T12:39:27;96318.28;;;22.40;43.33
44751;BME280;30477;48.224;11.470;2022-10-16T12:42:03;96317.91;;;22.29;43.86
44751;BME280;30477;48.224;11.470;2022-10-16T12:44:31;96317.09;;;22.36;44.12
44751;BME280;30477;48.224;11.470;2022-10-16T12:46:57;96316.44;;;22.47;42.93
44751;BME280;30477;48.224;11.470;2022-10-16T12:49:29;96316.66;;;22.45;42.56
44751;BME280;30477;48.224;11.470;2022-10-16T12:51:55;96315.44;;;22.41;41.79
44751;BME280;30477;48.224;11.470;2022-10-16T13:07:21;96315.28;;;22.29;42.30
44751;BME280;30477;48.224;11.470;2022-10-16T13:09:52;96313.66;;;22.28;42.21
44751;BME280;30477;48.224;11.470;2022-10-16T13:17:59;96324.03;;;22.10;41.63
44751;BME280;30477;48.224;11.470;2022-10-16T13:23:02;96322.81;;;22.06;41.96
44751;BME280;30477;48.224;11.470;2022-10-16T13:28:06;96324.41;;;22.20;43.20
44751;BME280;30477;48.224;11.470;2022-10-16T13:30:42;96324.19;;;22.15;42.59
44751;BME280;30477;48.224;11.470;2022-10-16T13:35:36;96331.16;;;22.03;41.49
44751;BME280;30477;48.224;11.470;2022-10-16T13:40:29;96327.28;;;22.05;41.92
44751;BME280;30477;48.224;11.470;2022-10-16T13:42:55;96329.50;;;22.08;42.65
44751;BME280;30477;48.224;11.470;2022-10-16T13:45:21;96335.81;;;22.01;42.62
44751;BME280;30477;48.224;11.470;2022-10-16T13:47:47;96337.03;;;21.92;42.53
44751;BME280;30477;48.224;11.470;2022-10-16T13:50:13;96337.44;;;21.88;42.84
44751;BME280;30477;48.224;11.470;2022-10-16T13:52:39;96340.88;;;21.89;42.51
44751;BME280;30477;48.224;11.470;2022-10-16T13:55:10;96345.53;;;21.87;42.70
44751;BME280;30477;48.224;11.470;2022-10-16T13:57:36;96336.25;;;21.78;42.81
44751;BME280;30477;48.224;11.470;2022-10-16T14:00:01;96346.97;;;21.76;43.07
44751;BME280;30477;48.224;11.470;2022-10-16T14:02:36;96345.13;;;21.77;43.21
44751;BME280;30477;48.224;11.470;2022-10-16T14:05:04;96340.50;;;21.72;43.75
44751;BME280;30477;48.224;11.470;2022-10-16T14:07:34;96344.72;;;21.66;44.22
44751;BME280;30477;48.224;11.470;2022-10-16T14:10:04;96347.00;;;21.63;44.66
44751;BME280;30477;48.224;11.470;2022-10-16T14:12:30;96347.38;;;21.60;45.10
44751;BME280;30477;48.224;11.470;2022-10-16T14:14:55;96341.09;;;21.61;44.76
44751;BME280;30477;48.224;11.470;2022-10-16T14:19:48;96341.09;;;21.54;44.17
44751;BME280;30477;48.224;11.470;2022-10-16T14:22:20;96343.94;;;21.53;43.83
44751;BME280;30477;48.224;11.470;2022-10-16T14:24:47;96342.09;;;21.53;44.27
44751;BME280;30477;48.224;11.470;2022-10-16T14:27:45;96344.56;;;21.55;44.01
44751;BME280;30477;48.224;11.470;2022-10-16T14:30:08;96341.50;;;21.58;43.75
44751;BME280;30477;48.224;11.470;2022-10-16T14:32:37;96340.28;;;21.54;44.29
44751;BME280;30477;48.224;11.470;2022-10-16T14:35:11;96342.31;;;21.52;45.22
44751;BME280;30477;48.224;11.470;2022-10-16T14:37:50;96340.09;;;21.48;45.27
44751;BME280;30477;48.224;11.470;2022-10-16T14:40:15;96350.81;;;21.47;45.19
44751;BME280;30477;48.224;11.470;2022-10-16T14:42:42;96341.50;;;21.44;45.05
44751;BME280;30477;48.224;11.470;2022-10-16T14:45:08;96345.09;;;21.37;45.81